You are listening to:
KTUS Del/Gnd/Twr/App/KDMA - Tucson, Arizona, United States

KTUS 251453Z 18012KT 10SM CLR 20/M02 A2995 RMK AO2 SLP104 T02001022 50008

If stream doesn't start automatically press the play button
If stream stops then reload player then press play